Time;durP1;ratioP1;P1;durP2;ratioP2;P2;SDS_P1;SDS_P2;PMS_P1;PMS_P2;Temp;Humidity;BMP_temperature;BMP_pressure;BME280_temperature;BME280_humidity;BME280_pressure;Samples;Min_cycle;Max_cycle;Signal;HPM_P1;HPM_P2
2023/05/15 00:02:56;;;;;;;2.45;1.73;;;;;;;15.75;61.78;99791.63;10195392;28;20047;-70
2023/05/15 00:07:58;;;;;;;2.45;2.25;;;;;;;15.79;62.14;99792.97;10191060;28;20087;-69
2023/05/15 00:12:59;;;;;;;3.40;2.10;;;;;;;15.66;61.88;99776.53;10201927;28;20051;-71
2023/05/15 00:18:01;;;;;;;2.30;1.63;;;;;;;15.72;62.54;99789.28;10196807;28;20233;-72
2023/05/15 00:23:02;;;;;;;2.38;2.17;;;;;;;15.58;62.01;99773.84;10191973;28;20062;-71
2023/05/15 00:28:03;;;;;;;2.60;2.40;;;;;;;15.51;62.51;99774.53;10193998;28;20130;-69
2023/05/15 00:33:05;;;;;;;3.03;2.72;;;;;;;15.49;62.32;99787.28;10199449;28;20099;-70
2023/05/15 00:38:07;;;;;;;2.92;2.50;;;;;;;15.38;63.09;99782.22;10193190;28;20051;-70
2023/05/15 00:43:10;;;;;;;2.88;2.60;;;;;;;15.23;63.67;99768.63;10225642;28;20162;-71
2023/05/15 00:48:12;;;;;;;3.25;2.22;;;;;;;15.29;63.92;99780.53;10193476;28;20051;-71
2023/05/15 00:53:14;;;;;;;2.22;2.03;;;;;;;15.26;63.74;99765.63;10196878;28;20085;-70
2023/05/15 00:58:17;;;;;;;2.67;2.47;;;;;;;15.26;63.88;99765.63;10194877;28;20418;-74
2023/05/15 01:03:18;;;;;;;2.33;2.13;;;;;;;15.18;64.14;99753.03;10225773;28;21174;-71
2023/05/15 01:08:37;;;;;;;3.05;1.90;;;;;;;15.17;64.37;99755.88;10190453;28;20396;-70
2023/05/15 01:13:39;;;;;;;2.05;1.85;;;;;;;15.18;64.61;99769.13;10194921;28;20062;-69
2023/05/15 01:18:40;;;;;;;2.15;2.00;;;;;;;15.13;64.85;99760.75;10188902;28;20155;-71
2023/05/15 01:24:05;;;;;;;2.45;2.25;;;;;;;15.14;64.60;99773.13;10197670;28;20563;-72
2023/05/15 01:29:11;;;;;;;2.83;2.25;;;;;;;15.11;65.20;99768.09;10195062;28;20057;-70
2023/05/15 01:34:18;;;;;;;3.70;2.30;;;;;;;15.02;64.37;99753.84;10197594;28;20547;-69
2023/05/15 01:39:24;;;;;;;2.40;2.20;;;;;;;15.01;64.37;99757.53;10196163;28;20171;-68
2023/05/15 01:44:32;;;;;;;2.90;2.47;;;;;;;15.03;64.28;99768.94;10222665;28;20421;-72
2023/05/15 01:49:35;;;;;;;4.15;2.35;;;;;;;14.92;64.88;99761.22;10194454;28;20069;-72
2023/05/15 01:54:38;;;;;;;4.00;2.78;;;;;;;14.84;65.06;99745.94;10190451;28;20071;-69
2023/05/15 01:59:41;;;;;;;4.07;2.80;;;;;;;14.86;65.60;99764.53;10187187;28;20440;-68
2023/05/15 02:04:44;;;;;;;3.00;2.80;;;;;;;14.78;65.54;99768.03;10207822;28;20050;-69
2023/05/15 02:09:46;;;;;;;3.53;3.20;;;;;;;14.73;66.69;99775.72;10196959;28;20058;-67
2023/05/15 02:14:49;;;;;;;4.10;3.28;;;;;;;14.46;67.67;99740.09;10189566;28;20051;-68
2023/05/15 02:19:50;;;;;;;3.38;3.08;;;;;;;14.59;67.99;99757.53;10196263;28;20051;-71
2023/05/15 02:24:52;;;;;;;3.60;3.35;;;;;;;14.41;68.22;99747.78;10193707;28;20418;-69
2023/05/15 02:30:03;;;;;;;5.00;4.20;;;;;;;14.46;68.63;99772.22;10204408;28;20178;-67
2023/05/15 02:35:20;;;;;;;3.90;3.60;;;;;;;14.43;68.96;99764.50;10189873;28;20066;-69
2023/05/15 02:40:23;;;;;;;3.63;3.33;;;;;;;14.43;68.62;99763.69;10189862;28;20554;-72
2023/05/15 02:45:25;;;;;;;4.85;3.67;;;;;;;14.41;69.25;99771.03;10192356;28;20043;-69
2023/05/15 02:50:27;;;;;;;4.43;3.97;;;;;;;14.22;69.24;99756.88;10189481;28;20055;-69
2023/05/15 02:55:28;;;;;;;4.10;3.80;;;;;;;14.28;69.71;99763.44;10192173;28;20043;-71
2023/05/15 03:00:30;;;;;;;4.90;4.47;;;;;;;14.22;70.31;99756.88;10189055;28;20051;-69
2023/05/15 03:05:31;;;;;;;5.03;4.60;;;;;;;14.26;70.85;99760.06;10207952;28;20659;-71
2023/05/15 03:10:33;;;;;;;5.43;4.40;;;;;;;14.25;70.35;99761.91;10191107;28;20081;-70
2023/05/15 03:15:34;;;;;;;5.13;4.72;;;;;;;14.19;70.54;99751.03;10189916;28;20051;-71
2023/05/15 03:20:36;;;;;;;5.57;5.00;;;;;;;14.26;70.53;99757.38;10186091;28;20181;-70
2023/05/15 03:25:37;;;;;;;4.57;4.18;;;;;;;14.10;70.98;99726.03;10194491;28;20065;-67
2023/05/15 03:30:38;;;;;;;5.10;4.65;;;;;;;14.11;70.38;99739.28;10190437;28;20130;-69
2023/05/15 03:35:40;;;;;;;4.78;4.40;;;;;;;14.11;70.91;99747.28;10220002;28;20058;-68
2023/05/15 03:40:41;;;;;;;7.40;4.82;;;;;;;14.08;71.13;99739.59;10196787;28;20059;-68
2023/05/15 03:45:43;;;;;;;5.28;4.85;;;;;;;14.14;71.31;99755.00;10199751;28;20051;-69
2023/05/15 03:50:45;;;;;;;5.35;4.78;;;;;;;14.17;71.38;99761.03;10201222;28;20059;-70
2023/05/15 03:55:47;;;;;;;5.75;5.20;;;;;;;14.17;71.63;99755.69;10198844;28;20079;-69
2023/05/15 04:00:48;;;;;;;5.68;4.63;;;;;;;14.13;71.77;99749.81;10198830;28;20138;-70
2023/05/15 04:05:50;;;;;;;5.00;4.60;;;;;;;14.11;71.34;99743.75;10213939;28;20167;-69
2023/05/15 04:10:53;;;;;;;5.18;4.78;;;;;;;14.12;71.50;99753.47;10193613;28;20425;-71
2023/05/15 04:15:55;;;;;;;5.78;4.40;;;;;;;14.03;71.42;99752.59;10226389;28;20454;-67
2023/05/15 04:20:56;;;;;;;4.43;3.67;;;;;;;14.00;71.17;99746.72;10201522;28;20059;-69
2023/05/15 04:25:58;;;;;;;4.60;4.22;;;;;;;14.02;70.87;99755.41;10200811;28;20324;-69
2023/05/15 04:31:00;;;;;;;4.28;3.88;;;;;;;14.08;70.78;99761.00;10193592;28;20051;-70
2023/05/15 04:36:02;;;;;;;6.32;5.07;;;;;;;13.81;71.02;99723.69;10191857;28;20053;-70
2023/05/15 04:41:03;;;;;;;4.38;3.97;;;;;;;14.00;71.05;99773.47;10197128;28;20063;-68
2023/05/15 04:46:04;;;;;;;6.53;5.07;;;;;;;13.90;71.69;99762.88;10212841;28;20067;-69
2023/05/15 04:51:06;;;;;;;4.78;4.38;;;;;;;13.91;72.32;99756.53;10208782;28;20431;-69
2023/05/15 04:56:07;;;;;;;6.97;4.90;;;;;;;13.85;72.12;99746.47;10196599;28;20051;-68
2023/05/15 05:01:09;;;;;;;5.30;4.78;;;;;;;13.93;72.56;99757.19;10197639;28;20886;-67
2023/05/15 05:06:10;;;;;;;5.95;5.40;;;;;;;13.93;72.53;99752.72;10187447;28;20303;-70
2023/05/15 05:11:11;;;;;;;5.55;5.05;;;;;;;14.10;72.57;99775.06;10185528;28;20462;-69
2023/05/15 05:16:13;;;;;;;6.45;5.82;;;;;;;14.07;72.42;99763.84;10202084;28;20051;-72
2023/05/15 05:21:14;;;;;;;6.47;5.70;;;;;;;14.20;72.38;99772.28;10188058;28;20510;-68
2023/05/15 05:26:16;;;;;;;7.93;7.13;;;;;;;14.17;72.41;99759.19;10188973;28;20423;-69
2023/05/15 05:31:17;;;;;;;8.45;6.53;;;;;;;14.31;73.19;99774.66;10217657;28;20119;-68
2023/05/15 05:36:19;;;;;;;7.35;6.07;;;;;;;14.41;72.52;99787.94;10187661;28;20510;-68
2023/05/15 05:41:20;;;;;;;7.20;6.15;;;;;;;14.38;72.61;99766.00;10185507;28;20172;-66
2023/05/15 05:46:22;;;;;;;6.97;5.75;;;;;;;14.57;72.16;99784.47;10203815;28;20604;-66
2023/05/15 05:51:23;;;;;;;9.88;6.53;;;;;;;14.63;72.45;99785.72;10199727;28;20055;-67
2023/05/15 05:56:25;;;;;;;7.05;6.35;;;;;;;14.68;72.26;99775.34;10185476;28;20510;-67
2023/05/15 06:01:26;;;;;;;8.38;6.63;;;;;;;14.81;72.00;99783.75;10189008;28;20055;-67
2023/05/15 06:06:28;;;;;;;6.65;5.90;;;;;;;14.88;71.83;99767.03;10185926;28;20322;-66
2023/05/15 06:11:30;;;;;;;8.23;6.50;;;;;;;15.05;71.46;99771.44;10189511;28;20051;-67
2023/05/15 06:16:31;;;;;;;6.68;6.07;;;;;;;15.06;71.27;99759.72;10187420;28;20111;-68
2023/05/15 06:21:33;;;;;;;6.70;5.60;;;;;;;15.35;70.74;99772.66;10185955;28;20207;-68
2023/05/15 06:26:35;;;;;;;7.40;6.13;;;;;;;15.35;69.70;99745.00;10188949;28;20061;-67
2023/05/15 06:31:36;;;;;;;6.43;5.82;;;;;;;15.24;69.31;99721.19;10183279;28;20235;-66
2023/05/15 06:36:38;;;;;;;5.75;5.18;;;;;;;15.67;68.86;99776.38;10188098;28;20478;-66
2023/05/15 06:41:39;;;;;;;6.05;5.45;;;;;;;15.77;68.09;99762.78;10187194;28;20623;-68
2023/05/15 06:46:40;;;;;;;6.22;5.68;;;;;;;15.95;67.72;99761.78;10185378;28;20055;-68
2023/05/15 06:51:42;;;;;;;6.10;5.32;;;;;;;16.04;67.05;99748.16;10187237;28;20783;-67
2023/05/15 06:56:43;;;;;;;5.72;4.93;;;;;;;16.09;65.32;99750.31;10179471;28;20206;-67
2023/05/15 07:01:45;;;;;;;5.00;4.50;;;;;;;16.22;65.08;99777.47;10212317;28;20517;-67
2023/05/15 07:06:46;;;;;;;7.53;4.43;;;;;;;16.14;65.73;99753.34;10185141;28;20870;-68
2023/05/15 07:11:47;;;;;;;5.00;4.60;;;;;;;16.33;64.16;99765.53;10186324;28;20130;-67
2023/05/15 07:16:49;;;;;;;3.70;3.40;;;;;;;16.33;64.22;99748.59;10185945;28;20542;-68
2023/05/15 07:21:50;;;;;;;4.68;4.25;;;;;;;16.44;63.09;99754.41;10178309;28;20406;-68
2023/05/15 07:26:52;;;;;;;5.68;4.45;;;;;;;16.68;61.96;99751.78;10174274;28;20079;-67
2023/05/15 07:31:59;;;;;;;5.20;4.50;;;;;;;16.74;61.77;99764.53;10186525;28;20509;-67
2023/05/15 07:37:01;;;;;;;3.72;3.33;;;;;;;16.73;61.78;99744.06;10184848;28;20055;-68
2023/05/15 07:42:03;;;;;;;3.72;3.35;;;;;;;17.08;61.38;99753.47;10186985;28;20153;-70
2023/05/15 07:47:04;;;;;;;3.50;2.92;;;;;;;17.46;59.52;99761.59;10182783;28;20695;-69
2023/05/15 07:52:06;;;;;;;2.60;2.40;;;;;;;17.70;57.14;99753.47;10184629;28;20096;-67
2023/05/15 07:57:08;;;;;;;3.53;2.15;;;;;;;17.78;57.33;99761.50;10181331;28;20205;-67
2023/05/15 08:02:09;;;;;;;2.33;2.13;;;;;;;17.97;56.17;99734.06;10186443;28;20047;-67
2023/05/15 08:07:12;;;;;;;3.38;2.50;;;;;;;18.38;55.30;99747.06;10185911;28;20122;-67
2023/05/15 08:12:19;;;;;;;6.05;2.78;;;;;;;17.95;53.55;99709.16;10181370;28;20071;-67
2023/05/15 08:17:23;;;;;;;3.60;2.70;;;;;;;18.31;54.36;99735.34;10196952;28;20047;-66
2023/05/15 08:22:24;;;;;;;2.90;2.70;;;;;;;18.51;53.31;99718.59;10174434;28;20505;-68
2023/05/15 08:27:26;;;;;;;4.03;2.35;;;;;;;18.97;52.86;99728.31;10185414;28;20063;-66
2023/05/15 08:32:27;;;;;;;3.65;2.92;;;;;;;18.97;51.92;99731.81;10218917;28;20999;-66
2023/05/15 08:37:28;;;;;;;4.95;3.00;;;;;;;18.93;51.72;99722.47;10184953;28;20052;-67
2023/05/15 08:42:46;;;;;;;4.15;2.75;;;;;;;19.12;51.58;99730.94;10205716;28;20055;-67
2023/05/15 08:47:52;;;;;;;4.78;3.03;;;;;;;19.25;51.02;99715.72;10180738;28;20055;-66
2023/05/15 08:52:57;;;;;;;3.05;2.72;;;;;;;19.59;49.89;99724.09;10202780;28;20114;-69
2023/05/15 08:57:59;;;;;;;3.55;3.25;;;;;;;19.81;48.68;99721.41;10190025;28;20058;-68
2023/05/15 09:03:01;;;;;;;5.22;3.13;;;;;;;19.79;49.49;99705.41;10186503;28;20210;-69
2023/05/15 09:08:04;;;;;;;4.03;3.03;;;;;;;20.27;49.82;99720.88;10187586;28;20086;-67
2023/05/15 09:13:06;;;;;;;7.23;3.20;;;;;;;20.27;47.86;99718.16;10188133;28;21190;-68
2023/05/15 09:18:08;;;;;;;3.65;3.35;;;;;;;20.15;49.25;99696.28;10187387;28;20279;-69
2023/05/15 09:23:24;;;;;;;3.90;3.60;;;;;;;20.46;44.62;99690.38;10181907;28;20246;-69
2023/05/15 09:28:32;;;;;;;3.05;2.80;;;;;;;20.55;47.21;99692.91;10185229;28;20047;-70
2023/05/15 09:33:36;;;;;;;4.30;3.15;;;;;;;20.51;46.38;99699.75;10185083;28;20119;-68
2023/05/15 09:38:42;;;;;;;4.43;2.70;;;;;;;20.73;44.45;99690.50;10187766;28;20056;-70
2023/05/15 09:43:43;;;;;;;3.90;3.35;;;;;;;21.14;43.43;99680.59;10184703;28;20051;-71
2023/05/15 09:48:45;;;;;;;2.65;2.45;;;;;;;21.20;43.84;99666.25;10187014;28;20055;-69
2023/05/15 09:53:54;;;;;;;4.38;3.55;;;;;;;21.25;42.85;99681.84;10185959;28;20110;-66
2023/05/15 09:58:58;;;;;;;3.97;3.60;;;;;;;21.25;43.15;99677.25;10219066;28;20126;-69
2023/05/15 10:04:02;;;;;;;5.30;3.67;;;;;;;21.06;44.27;99673.50;10185118;28;20047;-70
2023/05/15 10:09:04;;;;;;;3.72;3.20;;;;;;;20.89;45.27;99674.94;10185728;28;20039;-67
2023/05/15 10:14:08;;;;;;;3.78;3.45;;;;;;;20.56;42.00;99672.94;10177566;28;20450;-68
2023/05/15 10:19:10;;;;;;;;;;;;;;;20.89;42.32;99666.81;10181399;28;20518;-67
2023/05/15 10:24:13;;;;;;;4.13;3.65;;;;;;;21.46;41.82;99661.88;10180465;28;19934;-70
2023/05/15 10:29:20;;;;;;;3.50;3.17;;;;;;;21.22;43.42;99647.09;10186638;28;20525;-69
2023/05/15 10:34:22;;;;;;;3.85;3.30;;;;;;;21.07;44.34;99650.00;10185563;28;20047;-69
2023/05/15 10:39:26;;;;;;;4.35;3.63;;;;;;;20.98;45.13;99660.19;10185086;28;20730;-67
2023/05/15 10:44:27;;;;;;;;;;;;;;;20.70;44.15;99653.03;10200036;28;20234;-70
2023/05/15 10:49:28;;;;;;;5.18;3.70;;;;;;;20.59;45.96;99640.91;10185437;28;20561;-68
2023/05/15 10:54:30;;;;;;;5.38;4.88;;;;;;;20.14;46.24;99627.88;10182237;28;20427;-69
2023/05/15 10:59:33;;;;;;;5.70;4.38;;;;;;;20.25;46.27;99606.72;10180214;28;20193;-66
2023/05/15 11:04:35;;;;;;;4.40;4.00;;;;;;;20.68;45.63;99616.44;10186454;28;20635;-65
2023/05/15 11:09:37;;;;;;;5.60;4.20;;;;;;;20.79;45.16;99627.50;10183451;28;20166;-66
2023/05/15 11:14:42;;;;;;;4.00;3.70;;;;;;;20.76;45.64;99616.22;10183681;28;22403;-66
2023/05/15 11:19:50;;;;;;;6.82;6.07;;;;;;;20.56;43.86;99618.88;10198658;28;20561;-66
2023/05/15 11:25:11;;;;;;;7.13;6.28;;;;;;;20.46;43.62;99611.16;10180662;28;20047;-64
2023/05/15 11:30:21;;;;;;;8.18;7.38;;;;;;;20.55;44.98;99615.34;10184219;28;20069;-65
2023/05/15 11:35:35;;;;;;;8.85;7.40;;;;;;;20.61;44.52;99597.47;10183813;28;20178;-69
2023/05/15 11:40:51;;;;;;;10.60;7.50;;;;;;;21.27;44.93;99594.00;10180595;28;20063;-69
2023/05/15 11:45:56;;;;;;;7.28;6.57;;;;;;;21.87;43.52;99604.75;10182870;28;20994;-69
2023/05/15 11:50:59;;;;;;;7.57;6.45;;;;;;;21.61;42.63;99604.81;10184326;28;20059;-67
2023/05/15 11:56:01;;;;;;;6.68;6.05;;;;;;;21.35;42.72;99596.47;10184689;28;20157;-69
2023/05/15 12:01:02;;;;;;;10.23;7.95;;;;;;;21.35;43.33;99606.50;10188937;28;20130;-70
2023/05/15 12:06:04;;;;;;;8.43;6.90;;;;;;;21.27;44.10;99606.69;10194173;28;20094;-68
2023/05/15 12:11:05;;;;;;;8.93;8.07;;;;;;;21.16;43.91;99603.56;10198348;28;20064;-69
2023/05/15 12:16:07;;;;;;;10.00;7.88;;;;;;;21.12;45.13;99613.16;10200360;28;20425;-70
2023/05/15 12:21:09;;;;;;;8.90;8.00;;;;;;;21.15;44.44;99607.34;10198805;28;20066;-69
2023/05/15 12:26:11;;;;;;;10.30;7.43;;;;;;;21.35;45.08;99626.25;10201093;28;20059;-68
2023/05/15 12:31:12;;;;;;;10.25;7.55;;;;;;;21.56;45.20;99627.09;10198883;28;20058;-69
2023/05/15 12:36:14;;;;;;;8.27;7.40;;;;;;;21.49;44.33;99607.28;10202047;28;20081;-69
2023/05/15 12:41:15;;;;;;;10.45;8.32;;;;;;;21.86;44.49;99608.50;10206581;28;20077;-69
2023/05/15 12:46:22;;;;;;;9.48;8.30;;;;;;;21.89;44.02;99618.91;10202873;28;20158;-70
2023/05/15 12:51:23;;;;;;;8.93;7.43;;;;;;;22.02;43.74;99607.19;10199673;28;20098;-68
2023/05/15 12:56:28;;;;;;;8.98;8.02;;;;;;;22.07;43.58;99614.69;10201628;28;20576;-69
2023/05/15 13:01:29;;;;;;;8.10;7.30;;;;;;;22.03;43.44;99618.84;10204485;28;20094;-69
2023/05/15 13:06:31;;;;;;;7.60;6.70;;;;;;;22.03;43.46;99619.69;10202854;28;20054;-68
2023/05/15 13:11:46;;;;;;;8.25;6.53;;;;;;;22.03;42.99;99618.84;10200756;28;20047;-67
2023/05/15 13:16:47;;;;;;;6.57;4.90;;;;;;;21.88;41.04;99619.94;10201840;28;20062;-69
2023/05/15 13:21:49;;;;;;;4.70;4.10;;;;;;;21.81;41.50;99611.00;10201499;28;20150;-69
2023/05/15 13:26:51;;;;;;;2.88;2.67;;;;;;;21.91;42.08;99626.00;10198934;28;20726;-68
2023/05/15 13:31:53;;;;;;;3.42;3.10;;;;;;;21.39;40.14;99634.78;10202495;28;20059;-68
2023/05/15 13:36:54;;;;;;;4.97;3.28;;;;;;;20.84;41.40;99643.09;10194082;28;20109;-68
2023/05/15 13:41:57;;;;;;;6.93;3.90;;;;;;;20.56;42.36;99621.59;10224561;28;20048;-68
2023/05/15 13:47:03;;;;;;;3.50;3.13;;;;;;;20.55;41.23;99626.16;10198727;28;20058;-69
2023/05/15 13:52:04;;;;;;;4.57;2.75;;;;;;;19.84;42.16;99646.22;10197353;28;20303;-68
2023/05/15 13:57:06;;;;;;;5.25;2.25;;;;;;;19.55;43.77;99658.06;10210657;28;20058;-67
2023/05/15 14:02:07;;;;;;;3.42;3.13;;;;;;;19.56;44.19;99678.59;10196487;28;20423;-70
2023/05/15 14:07:09;;;;;;;3.80;3.05;;;;;;;19.34;46.93;99675.94;10195902;28;20055;-68
2023/05/15 14:12:10;;;;;;;5.10;3.92;;;;;;;19.13;49.08;99663.31;10224122;28;20062;-68
2023/05/15 14:17:12;;;;;;;4.22;3.83;;;;;;;18.91;49.99;99670.56;10197890;28;20051;-68
2023/05/15 14:22:14;;;;;;;4.88;4.05;;;;;;;18.83;50.21;99657.19;10189521;28;20050;-69
2023/05/15 14:27:17;;;;;;;4.50;3.10;;;;;;;18.45;52.43;99655.56;10196664;28;20083;-69
2023/05/15 14:32:19;;;;;;;4.47;2.85;;;;;;;18.06;56.47;99664.81;10195048;28;20058;-69
2023/05/15 14:37:20;;;;;;;3.33;3.03;;;;;;;18.16;57.58;99649.16;10199401;28;20047;-68
2023/05/15 14:42:22;;;;;;;4.25;3.15;;;;;;;17.65;59.70;99671.44;10201085;28;20055;-69
2023/05/15 14:47:24;;;;;;;3.33;3.03;;;;;;;17.13;61.60;99688.38;10225671;28;20043;-69
2023/05/15 14:52:25;;;;;;;4.90;3.70;;;;;;;16.61;65.68;99669.19;10196842;28;20675;-69
2023/05/15 14:57:26;;;;;;;4.43;3.58;;;;;;;16.50;66.11;99683.03;10193858;28;20058;-69
2023/05/15 15:02:28;;;;;;;5.78;3.95;;;;;;;16.40;66.73;99655.56;10199426;28;20404;-69
2023/05/15 15:07:29;;;;;;;4.97;4.28;;;;;;;16.38;67.29;99673.72;10189757;28;20511;-69
2023/05/15 15:12:31;;;;;;;5.90;5.05;;;;;;;16.86;67.48;99665.50;10182540;28;21734;-67
2023/05/15 15:17:33;;;;;;;6.25;5.72;;;;;;;16.91;66.66;99668.56;10199498;28;20569;-66
2023/05/15 15:22:35;;;;;;;6.03;5.45;;;;;;;17.21;65.86;99674.88;10186239;28;20512;-68
2023/05/15 15:27:36;;;;;;;6.50;5.85;;;;;;;17.21;63.62;99664.09;10187064;28;20047;-69
2023/05/15 15:32:39;;;;;;;6.55;5.80;;;;;;;17.19;66.09;99659.91;10187075;28;20085;-69
2023/05/15 15:37:40;;;;;;;7.18;6.47;;;;;;;17.19;66.41;99650.00;10214477;28;20047;-68
2023/05/15 15:42:41;;;;;;;6.50;5.90;;;;;;;17.46;65.45;99663.91;10188982;28;20059;-68
2023/05/15 15:47:43;;;;;;;7.38;6.68;;;;;;;17.42;65.06;99646.44;10190526;28;20139;-68
2023/05/15 15:52:45;;;;;;;7.93;6.63;;;;;;;17.54;64.62;99665.69;10189828;28;20055;-67
2023/05/15 15:57:47;;;;;;;10.57;6.80;;;;;;;17.41;64.47;99647.47;10191573;28;20131;-69
2023/05/15 16:02:48;;;;;;;8.10;7.32;;;;;;;17.41;64.30;99648.28;10192278;28;20758;-69
2023/05/15 16:07:49;;;;;;;8.05;7.32;;;;;;;17.60;63.57;99673.00;10186067;28;20138;-68
2023/05/15 16:12:51;;;;;;;8.57;7.75;;;;;;;17.51;63.15;99658.78;10214674;28;20059;-68
2023/05/15 16:17:52;;;;;;;8.50;7.68;;;;;;;17.62;63.94;99677.16;10189505;28;20055;-67
2023/05/15 16:22:55;;;;;;;8.15;7.35;;;;;;;17.65;63.33;99671.44;10188463;28;20221;-68
2023/05/15 16:27:56;;;;;;;9.07;7.72;;;;;;;17.62;62.79;99676.34;10187327;28;20113;-69
2023/05/15 16:32:58;;;;;;;7.50;6.75;;;;;;;17.70;63.34;99675.41;10184868;28;22722;-71
2023/05/15 16:37:59;;;;;;;8.07;6.72;;;;;;;17.67;63.29;99658.63;10187501;28;20059;-69
2023/05/15 16:43:01;;;;;;;9.18;7.22;;;;;;;17.81;63.29;99675.81;10191940;28;20426;-69
2023/05/15 16:48:02;;;;;;;5.97;5.47;;;;;;;17.82;63.81;99687.44;10193369;28;20059;-69
2023/05/15 16:53:04;;;;;;;7.22;6.53;;;;;;;17.74;63.61;99660.59;10195760;28;20237;-71
2023/05/15 16:58:05;;;;;;;6.53;5.95;;;;;;;17.88;63.86;99681.31;10192005;28;20061;-70
2023/05/15 17:03:07;;;;;;;6.65;5.97;;;;;;;17.83;64.02;99667.53;10193309;28;20074;-67
2023/05/15 17:08:08;;;;;;;6.72;6.07;;;;;;;17.94;64.01;99687.81;10196053;28;20071;-68
2023/05/15 17:13:10;;;;;;;6.25;5.75;;;;;;;17.93;62.77;99689.69;10194668;28;20437;-68
2023/05/15 17:18:11;;;;;;;7.25;5.93;;;;;;;17.95;62.76;99693.00;10197529;28;20069;-68
2023/05/15 17:23:12;;;;;;;6.53;5.85;;;;;;;17.94;62.46;99690.50;10196340;28;20135;-67
2023/05/15 17:28:14;;;;;;;7.18;6.47;;;;;;;17.99;62.91;99686.25;10197029;28;20048;-67
2023/05/15 17:33:15;;;;;;;8.35;5.90;;;;;;;17.89;62.41;99674.91;10226718;28;20399;-68
2023/05/15 17:38:17;;;;;;;6.72;6.13;;;;;;;18.04;62.23;99692.94;10195007;28;20470;-67
2023/05/15 17:43:18;;;;;;;5.72;5.20;;;;;;;17.91;62.10;99675.56;10200524;28;20055;-67
2023/05/15 17:48:19;;;;;;;6.00;5.50;;;;;;;18.06;62.13;99698.97;10194552;28;20102;-67
2023/05/15 17:53:22;;;;;;;5.93;5.35;;;;;;;18.05;61.41;99705.38;10196333;28;20070;-66
2023/05/15 17:58:24;;;;;;;6.38;5.57;;;;;;;18.04;61.39;99707.22;10190921;28;20685;-67
2023/05/15 18:03:25;;;;;;;6.10;5.28;;;;;;;17.97;61.03;99715.22;10196571;28;20057;-68
2023/05/15 18:08:27;;;;;;;5.88;4.70;;;;;;;17.93;60.58;99711.22;10198945;28;20051;-68
2023/05/15 18:13:28;;;;;;;5.07;4.68;;;;;;;17.93;60.02;99716.59;10206338;28;20694;-67
2023/05/15 18:18:30;;;;;;;5.80;4.75;;;;;;;17.80;60.12;99705.59;10204407;28;20112;-67
2023/05/15 18:23:31;;;;;;;5.30;4.60;;;;;;;17.73;59.55;99710.03;10208601;28;20055;-68
2023/05/15 18:28:33;;;;;;;5.57;4.88;;;;;;;17.72;58.79;99714.59;10211484;28;20506;-67
2023/05/15 18:33:34;;;;;;;5.35;4.90;;;;;;;17.80;59.51;99743.28;10207853;28;20066;-68
2023/05/15 18:38:36;;;;;;;5.00;4.50;;;;;;;17.61;60.01;99732.03;10201540;28;20055;-67
2023/05/15 18:43:37;;;;;;;5.50;5.10;;;;;;;17.57;58.91;99738.78;10204362;28;20536;-71
2023/05/15 18:48:38;;;;;;;5.18;4.68;;;;;;;17.59;58.29;99754.75;10209162;28;20066;-68
2023/05/15 18:53:40;;;;;;;5.68;5.20;;;;;;;17.56;58.12;99747.88;10204721;28;20150;-68
2023/05/15 18:58:41;;;;;;;7.20;5.68;;;;;;;17.48;60.95;99764.91;10206724;28;20157;-67
2023/05/15 19:03:43;;;;;;;6.38;5.88;;;;;;;17.41;60.77;99755.06;10204688;28;20063;-70
2023/05/15 19:08:47;;;;;;;5.82;5.40;;;;;;;17.46;60.58;99768.81;10202527;28;20054;-68
2023/05/15 19:13:48;;;;;;;6.00;5.40;;;;;;;17.49;59.50;99779.22;10208119;28;20040;-69
2023/05/15 19:18:50;;;;;;;5.95;5.35;;;;;;;17.46;59.05;99787.66;10199301;28;20082;-70
2023/05/15 19:23:51;;;;;;;5.70;5.18;;;;;;;17.28;59.18;99769.97;10201788;28;20056;-71
2023/05/15 19:28:53;;;;;;;5.93;5.50;;;;;;;17.46;60.67;99795.75;10198257;28;20095;-70
2023/05/15 19:33:55;;;;;;;5.40;4.90;;;;;;;17.31;59.76;99777.66;10197963;28;20079;-69
2023/05/15 19:38:56;;;;;;;7.03;5.63;;;;;;;17.39;60.64;99800.16;10190739;28;20458;-70
2023/05/15 19:43:58;;;;;;;5.93;5.32;;;;;;;17.33;61.03;99790.13;10194018;28;20194;-73
2023/05/15 19:48:59;;;;;;;6.47;5.70;;;;;;;17.43;60.62;99817.59;10191173;28;20062;-72
2023/05/15 19:54:01;;;;;;;5.80;5.20;;;;;;;17.35;61.23;99820.34;10188520;28;20044;-70
2023/05/15 19:59:02;;;;;;;6.93;6.32;;;;;;;17.26;61.49;99811.50;10210020;28;20054;-70
2023/05/15 20:04:04;;;;;;;7.07;6.47;;;;;;;17.39;61.27;99843.19;10206120;28;20067;-70
2023/05/15 20:09:05;;;;;;;8.38;6.32;;;;;;;17.36;60.01;99843.56;10194528;28;20231;-70
2023/05/15 20:14:07;;;;;;;7.25;6.65;;;;;;;17.31;61.59;99850.28;10196512;28;20593;-71
2023/05/15 20:19:09;;;;;;;6.28;5.68;;;;;;;17.20;61.81;99848.00;10188832;28;20541;-69
2023/05/15 20:24:11;;;;;;;7.05;6.45;;;;;;;17.21;62.48;99843.47;10190072;28;20146;-69
2023/05/15 20:29:12;;;;;;;6.80;6.10;;;;;;;17.23;62.80;99854.88;10194912;28;20062;-70
2023/05/15 20:34:14;;;;;;;7.15;6.40;;;;;;;17.10;62.79;99844.72;10227994;28;20051;-70
2023/05/15 20:39:16;;;;;;;8.20;7.40;;;;;;;17.10;62.68;99840.16;10198626;28;20486;-69
2023/05/15 20:44:17;;;;;;;8.02;7.32;;;;;;;17.04;61.89;99834.63;10197192;28;20054;-68
2023/05/15 20:49:19;;;;;;;8.45;6.93;;;;;;;16.98;60.84;99843.41;10199152;28;20231;-69
2023/05/15 20:54:20;;;;;;;8.50;7.68;;;;;;;17.05;61.58;99847.91;10207699;28;20079;-70
2023/05/15 20:59:22;;;;;;;8.50;7.68;;;;;;;17.03;61.62;99857.19;10198158;28;20055;-69
2023/05/15 21:04:23;;;;;;;9.90;7.55;;;;;;;16.87;61.19;99845.47;10197603;28;20639;-71
2023/05/15 21:09:25;;;;;;;9.30;8.40;;;;;;;16.87;61.01;99858.91;10196380;28;20082;-68
2023/05/15 21:14:26;;;;;;;9.18;8.38;;;;;;;16.85;60.33;99852.84;10198632;28;20046;-72
2023/05/15 21:19:28;;;;;;;8.20;7.45;;;;;;;16.89;61.32;99862.28;10211583;28;20047;-72
2023/05/15 21:24:29;;;;;;;10.60;8.38;;;;;;;16.81;60.78;99856.88;10211976;28;20062;-70
2023/05/15 21:29:30;;;;;;;9.55;8.35;;;;;;;16.75;60.65;99849.50;10197035;28;20053;-69
2023/05/15 21:34:32;;;;;;;8.60;7.80;;;;;;;16.65;61.35;99836.28;10224422;28;20066;-69
2023/05/15 21:39:33;;;;;;;9.50;8.60;;;;;;;16.74;62.26;99874.72;10197798;28;20105;-69
2023/05/15 21:44:35;;;;;;;8.98;8.18;;;;;;;16.72;61.80;99869.53;10196848;28;20053;-69
2023/05/15 21:49:36;;;;;;;10.13;9.23;;;;;;;16.61;62.59;99878.78;10193715;28;20735;-70
2023/05/15 21:54:37;;;;;;;12.02;10.82;;;;;;;16.57;62.63;99861.34;10197820;28;20963;-69
2023/05/15 21:59:39;;;;;;;12.73;11.10;;;;;;;16.55;63.11;99863.34;10196172;28;20043;-69
2023/05/15 22:04:40;;;;;;;13.23;12.02;;;;;;;16.45;62.64;99854.63;10192958;28;20490;-68
2023/05/15 22:09:42;;;;;;;13.75;12.35;;;;;;;16.43;63.96;99878.97;10204464;28;20043;-70
2023/05/15 22:14:44;;;;;;;15.00;13.60;;;;;;;16.40;63.52;99865.91;10192395;28;20043;-69
2023/05/15 22:20:06;;;;;;;16.10;14.63;;;;;;;16.21;64.14;99869.81;10189604;28;20570;-71
2023/05/15 22:25:08;;;;;;;17.75;15.60;;;;;;;16.03;64.86;99869.13;10197020;28;20062;-71
2023/05/15 22:30:10;;;;;;;19.05;17.10;;;;;;;15.95;64.77;99866.47;10223381;28;20059;-67
2023/05/15 22:35:12;;;;;;;19.65;17.73;;;;;;;15.77;64.22;99855.84;10194967;28;20521;-72
2023/05/15 22:40:13;;;;;;;20.13;17.95;;;;;;;15.82;65.66;99877.69;10193851;28;20050;-69
2023/05/15 22:45:15;;;;;;;20.85;18.75;;;;;;;15.71;65.36;99878.81;10193572;28;20126;-71
2023/05/15 22:50:19;;;;;;;20.05;18.05;;;;;;;15.61;65.22;99867.41;10192217;28;20051;-66
2023/05/15 22:55:20;;;;;;;19.08;17.17;;;;;;;15.70;65.76;99864.56;10196132;28;20059;-71
2023/05/15 23:00:22;;;;;;;19.20;17.30;;;;;;;15.73;64.44;99882.16;10194314;28;20174;-69
2023/05/15 23:05:24;;;;;;;19.58;17.58;;;;;;;15.59;66.50;99872.09;10194188;28;20694;-72
2023/05/15 23:10:25;;;;;;;17.52;15.82;;;;;;;15.78;64.87;99893.28;10193354;28;20059;-71
2023/05/15 23:15:27;;;;;;;19.90;17.20;;;;;;;15.72;64.53;99881.34;10193489;28;20055;-68
2023/05/15 23:20:28;;;;;;;18.98;16.98;;;;;;;15.80;65.13;99896.63;10193778;28;20127;-71
2023/05/15 23:25:30;;;;;;;17.85;15.98;;;;;;;15.76;65.61;99889.88;10195493;28;20051;-71